Time;durP1;ratioP1;P1;durP2;ratioP2;P2;SDS_P1;SDS_P2;PMS_P1;PMS_P2;Temp;Humidity;BMP_temperature;BMP_pressure;BME280_temperature;BME280_humidity;BME280_pressure;Samples;Min_cycle;Max_cycle;Signal;HPM_P1;HPM_P2
2022/01/11 00:01:21;;;;;;;;;12.75;12.50;;;;;15.97;58.17;103008.53;4994895;28;9538;-83
2022/01/11 00:03:46;;;;;;;;;6.00;6.00;;;;;15.93;58.00;103004.84;4994171;28;9918;-84
2022/01/11 00:06:22;;;;;;;;;6.75;6.75;;;;;15.91;58.08;103013.56;4994649;28;9576;-83
2022/01/11 00:08:49;;;;;;;;;10.75;8.00;;;;;15.91;58.05;103000.38;4994581;28;8773;-83
2022/01/11 00:11:14;;;;;;;;;12.00;10.75;;;;;15.92;58.21;103008.34;4993922;28;9549;-83
2022/01/11 00:13:41;;;;;;;;;9.00;9.00;;;;;15.94;58.21;103009.28;4994418;28;9660;-83
2022/01/11 00:16:08;;;;;;;;;9.50;9.50;;;;;15.95;58.19;103008.44;4994567;28;8794;-83
2022/01/11 00:18:34;;;;;;;;;10.00;10.00;;;;;15.95;58.27;103019.00;4993801;28;9637;-83
2022/01/11 00:21:00;;;;;;;;;7.50;7.50;;;;;15.93;58.35;103010.13;4994375;28;9650;-83
2022/01/11 00:25:54;;;;;;;;;10.75;8.50;;;;;15.93;58.00;103006.63;4993883;28;8788;-83
2022/01/11 00:28:21;;;;;;;;;7.75;7.75;;;;;15.94;58.05;103008.38;4994284;28;8784;-83
2022/01/11 00:30:48;;;;;;;;;10.50;8.75;;;;;15.90;58.10;103014.38;4992173;28;10328;-84
2022/01/11 00:33:19;;;;;;;;;7.75;7.50;;;;;15.92;57.94;103025.91;4993688;28;9467;-84
2022/01/11 00:35:49;;;;;;;;;9.00;9.00;;;;;15.92;58.30;103020.63;4993854;28;9627;-83
2022/01/11 00:38:18;;;;;;;;;9.75;9.75;;;;;15.91;58.02;103021.47;4993350;28;9420;-83
2022/01/11 00:40:48;;;;;;;;;8.25;8.25;;;;;15.92;58.16;103029.44;4993910;28;9635;-82
2022/01/11 00:43:18;;;;;;;;;10.00;7.00;;;;;15.93;58.21;103031.19;4993840;28;9725;-83
2022/01/11 00:45:44;;;;;;;;;10.50;10.50;;;;;15.92;58.05;103037.34;4992660;28;9412;-83
2022/01/11 00:48:09;;;;;;;;;8.25;7.25;;;;;15.90;57.95;103032.84;4994133;28;9586;-82
2022/01/11 00:50:36;;;;;;;;;9.00;8.50;;;;;15.93;58.21;103031.19;4993442;28;8841;-83
2022/01/11 00:53:04;;;;;;;;;5.75;5.75;;;;;15.88;57.92;103024.91;4992942;28;8768;-83
2022/01/11 00:55:29;;;;;;;;;9.00;9.00;;;;;15.88;57.94;103021.34;4993512;28;9540;-83
2022/01/11 00:57:55;;;;;;;;;10.25;10.25;;;;;15.92;58.21;103025.91;4993757;28;9584;-83
2022/01/11 01:00:20;;;;;;;;;8.75;8.75;;;;;15.92;57.77;103025.91;4992938;28;8796;-83
2022/01/11 01:02:45;;;;;;;;;11.50;11.50;;;;;15.91;57.76;103029.34;4993053;28;8800;-82
2022/01/11 01:05:11;;;;;;;;;7.50;6.50;;;;;15.84;57.68;103022.09;4993127;28;8823;-83
2022/01/11 01:07:36;;;;;;;;;10.00;9.75;;;;;15.90;57.74;103039.00;4992352;28;8804;-82
2022/01/11 01:10:08;;;;;;;;;10.00;10.00;;;;;15.88;57.84;103026.63;4993004;28;9538;-83
2022/01/11 01:12:36;;;;;;;;;4.00;4.00;;;;;15.91;57.95;103030.25;4992678;28;8768;-84
2022/01/11 01:15:03;;;;;;;;;11.75;10.75;;;;;15.91;57.85;103022.34;4993092;28;9556;-84
2022/01/11 01:17:28;;;;;;;;;8.00;8.00;;;;;15.85;57.67;103022.16;4993297;28;10205;-84
2022/01/11 01:19:53;;;;;;;;;8.50;7.00;;;;;15.86;57.87;103036.19;4992168;28;9642;-84
2022/01/11 01:22:19;;;;;;;;;9.00;9.00;;;;;15.90;57.78;103032.84;4992974;28;8850;-84
2022/01/11 01:24:46;;;;;;;;;11.25;10.00;;;;;15.87;57.92;103028.34;4993254;28;8789;-84
2022/01/11 01:27:11;;;;;;;;;6.50;6.50;;;;;15.87;57.72;103028.34;4992208;28;8836;-84
2022/01/11 01:29:43;;;;;;;;;12.25;11.25;;;;;15.88;57.52;103039.78;4992765;28;10292;-83
2022/01/11 01:32:08;;;;;;;;;7.75;7.75;;;;;15.85;57.75;103045.88;4993333;28;8800;-83
2022/01/11 01:34:34;;;;;;;;;6.50;6.00;;;;;15.87;57.65;103035.38;4992710;28;9722;-84
2022/01/11 01:36:59;;;;;;;;;8.00;8.00;;;;;15.91;57.66;103040.81;4993014;28;8934;-84
2022/01/11 01:39:25;;;;;;;;;11.50;11.00;;;;;15.86;57.41;103036.19;4993162;28;8845;-84
2022/01/11 01:41:51;;;;;;;;;10.50;7.50;;;;;15.87;57.53;103040.63;4991942;28;8800;-82
2022/01/11 01:44:17;;;;;;;;;8.00;7.00;;;;;15.84;57.75;103037.91;4992784;28;8818;-82
2022/01/11 01:46:42;;;;;;;;;8.75;8.75;;;;;15.87;57.51;103052.06;4992030;28;9600;-83
2022/01/11 01:49:10;;;;;;;;;8.75;8.00;;;;;15.84;57.75;103054.59;4992434;28;9540;-83
2022/01/11 01:51:35;;;;;;;;;6.50;6.50;;;;;15.88;57.53;103059.13;4992914;28;8791;-83
2022/01/11 01:54:01;;;;;;;;;9.50;9.50;;;;;15.84;57.75;103051.06;4992653;28;9564;-84
2022/01/11 01:56:27;;;;;;;;;7.50;7.50;;;;;15.87;57.53;103046.81;4991944;28;8812;-84
2022/01/11 01:58:53;;;;;;;;;9.75;9.75;;;;;15.85;57.58;103056.41;4992439;28;8886;-83
2022/01/11 02:01:19;;;;;;;;;7.00;7.00;;;;;15.86;57.46;103052.00;4992656;28;9489;-85
2022/01/11 02:03:45;;;;;;;;;8.75;8.75;;;;;15.87;57.66;103056.44;4991590;28;11366;-83
2022/01/11 02:06:16;;;;;;;;;9.50;8.75;;;;;15.89;57.58;103049.50;4992579;28;9594;-83
2022/01/11 02:08:44;;;;;;;;;10.00;8.00;;;;;15.87;57.54;103059.06;4992095;28;11409;-84
2022/01/11 02:11:10;;;;;;;;;10.75;10.00;;;;;15.86;57.67;103050.28;4992513;28;9631;-83
2022/01/11 02:13:36;;;;;;;;;11.25;11.00;;;;;15.84;57.72;103059.88;5011670;28;9646;-82
2022/01/11 02:16:03;;;;;;;;;8.00;7.00;;;;;15.82;57.69;103055.41;5011501;28;8802;-84
2022/01/11 02:18:29;;;;;;;;;7.75;6.75;;;;;15.86;57.65;103063.44;5012352;28;9579;-83
2022/01/11 02:20:58;;;;;;;;;10.00;10.00;;;;;15.83;57.68;103051.91;5011464;28;10264;-83
2022/01/11 02:23:26;;;;;;;;;12.00;9.75;;;;;15.88;57.58;103056.50;5011541;28;8766;-84
2022/01/11 02:25:51;;;;;;;;;9.25;7.25;;;;;15.82;57.74;103055.41;5012279;28;9580;-83
2022/01/11 02:28:20;;;;;;;;;14.75;12.50;;;;;15.84;57.57;103054.59;5011977;28;9508;-83
2022/01/11 02:30:46;;;;;;;;;11.00;10.50;;;;;15.85;57.61;103053.78;5011353;28;8778;-82
2022/01/11 02:33:26;;;;;;;;;10.00;10.00;;;;;15.79;57.45;103048.25;5011780;28;9526;-83
2022/01/11 02:35:52;;;;;;;;;7.50;7.00;;;;;15.75;57.80;103049.00;5011708;28;9466;-84
2022/01/11 02:38:18;;;;;;;;;11.00;10.50;;;;;15.85;57.60;103064.31;5011202;28;9478;-83
2022/01/11 02:40:44;;;;;;;;;11.75;10.00;;;;;15.86;57.50;103062.53;5011953;28;8790;-83
2022/01/11 02:43:10;;;;;;;;;13.50;12.00;;;;;15.84;57.53;103066.88;5012060;28;8790;-84
2022/01/11 02:45:38;;;;;;;;;9.50;9.50;;;;;15.80;57.47;103063.25;5010929;28;9677;-84
2022/01/11 02:48:03;;;;;;;;;9.75;8.50;;;;;15.84;57.57;103054.59;5011741;28;8810;-83
2022/01/11 02:50:29;;;;;;;;;11.25;11.00;;;;;15.86;57.54;103052.91;5012016;28;9491;-84
2022/01/11 02:52:54;;;;;;;;;9.75;9.75;;;;;15.85;57.59;103052.88;5010644;28;8770;-83
2022/01/11 02:55:20;;;;;;;;;10.50;9.25;;;;;15.86;57.16;103058.16;5011986;28;9494;-85
2022/01/11 02:57:45;;;;;;;;;9.75;9.75;;;;;15.83;57.51;103060.72;5011215;28;8900;-84
2022/01/11 03:00:15;;;;;;;;;10.75;10.75;;;;;15.88;57.43;103069.69;5011114;28;8873;-84
2022/01/11 03:02:40;;;;;;;;;10.00;9.00;;;;;15.86;57.37;103068.72;5011440;28;8868;-84
2022/01/11 03:05:08;;;;;;;;;10.75;10.00;;;;;15.81;57.34;103056.22;5011025;28;9638;-84
2022/01/11 03:07:34;;;;;;;;;11.00;11.00;;;;;15.85;57.68;103077.47;5011745;28;8900;-84
2022/01/11 03:10:05;;;;;;;;;12.75;10.00;;;;;15.82;57.51;103077.34;5011818;28;10308;-84
2022/01/11 03:12:31;;;;;;;;;12.25;11.00;;;;;15.87;57.42;103090.69;5010830;28;8798;-84
2022/01/11 03:14:57;;;;;;;;;6.00;6.00;;;;;15.86;57.47;103100.31;5013870;28;9521;-84
2022/01/11 03:17:23;;;;;;;;;12.00;10.00;;;;;15.85;57.34;103106.44;5014762;28;9549;-84
2022/01/11 03:19:49;;;;;;;;;10.25;9.75;;;;;15.83;57.51;103101.94;5014046;28;8804;-83
2022/01/11 03:22:14;;;;;;;;;11.50;10.75;;;;;15.84;57.36;103091.47;5015569;28;10132;-84
2022/01/11 03:24:40;;;;;;;;;11.00;9.50;;;;;15.89;57.07;103100.47;5014672;28;9528;-84
2022/01/11 03:27:07;;;;;;;;;10.25;10.25;;;;;15.88;57.53;103100.38;5014954;28;8806;-84
2022/01/11 03:29:34;;;;;;;;;10.00;9.25;;;;;15.86;57.40;103100.31;5015519;28;9537;-84
2022/01/11 03:31:59;;;;;;;;;7.50;7.50;;;;;15.85;57.36;103103.81;5014766;28;9619;-85
2022/01/11 03:34:25;;;;;;;;;7.25;6.75;;;;;15.88;57.33;103095.13;5013914;28;9477;-83
2022/01/11 03:36:50;;;;;;;;;11.25;11.00;;;;;15.83;57.48;103080.88;5014716;28;8805;-84
2022/01/11 03:39:15;;;;;;;;;10.00;10.00;;;;;15.79;57.55;103071.97;5014751;28;8920;-84
2022/01/11 03:41:40;;;;;;;;;12.00;11.00;;;;;15.80;57.41;103067.59;5013768;28;8872;-83
2022/01/11 03:44:06;;;;;;;;;8.00;8.00;;;;;15.82;57.40;103069.44;5014473;28;8798;-84
2022/01/11 03:46:31;;;;;;;;;10.50;7.25;;;;;15.83;57.37;103059.81;5014836;28;8850;-84
2022/01/11 03:48:57;;;;;;;;;11.25;10.00;;;;;15.82;57.28;103077.34;5013704;28;8836;-84
2022/01/11 03:51:22;;;;;;;;;11.50;11.50;;;;;15.80;57.36;103064.97;5013946;28;8782;-84
2022/01/11 03:54:07;;;;;;;;;10.75;10.50;;;;;15.79;57.09;103056.16;5014032;28;8892;-83
2022/01/11 03:56:32;;;;;;;;;10.50;10.50;;;;;15.80;57.08;103065.88;5013376;28;8798;-83
2022/01/11 03:58:58;;;;;;;;;11.25;11.00;;;;;15.78;57.23;103058.75;5013601;28;9743;-84
2022/01/11 04:01:25;;;;;;;;;11.00;11.00;;;;;15.82;57.21;103066.81;5013570;28;8778;-83
2022/01/11 04:03:50;;;;;;;;;13.00;13.00;;;;;15.84;57.25;103080.03;5014365;28;8817;-83
2022/01/11 04:06:16;;;;;;;;;11.00;11.00;;;;;15.80;57.35;103076.41;5014429;28;9666;-83
2022/01/11 04:08:44;;;;;;;;;14.00;12.75;;;;;15.82;56.98;103077.34;5020935;28;8893;-83
2022/01/11 04:11:09;;;;;;;;;11.25;10.75;;;;;15.82;57.04;103073.84;5017062;28;9797;-83
2022/01/11 04:13:35;;;;;;;;;10.00;10.00;;;;;15.83;57.18;103075.59;5014720;28;9485;-83
2022/01/11 04:16:00;;;;;;;;;11.25;11.25;;;;;15.82;57.00;103061.53;5013528;28;8813;-83
2022/01/11 04:18:26;;;;;;;;;7.75;7.75;;;;;15.80;57.21;103068.50;5014002;28;8811;-83
2022/01/11 04:20:51;;;;;;;;;12.50;10.25;;;;;15.84;57.27;103080.03;5013666;28;8925;-83
2022/01/11 04:23:17;;;;;;;;;10.75;10.50;;;;;15.86;57.17;103083.63;5013509;28;8793;-83
2022/01/11 04:25:42;;;;;;;;;9.50;9.25;;;;;15.85;57.16;103095.00;5013482;28;8794;-82
2022/01/11 04:28:07;;;;;;;;;11.50;9.50;;;;;15.85;57.19;103092.38;5013725;28;8798;-83
2022/01/11 04:30:34;;;;;;;;;8.50;8.50;;;;;15.81;57.21;103086.09;5013132;28;8790;-83
2022/01/11 04:33:00;;;;;;;;;11.50;9.75;;;;;15.86;57.13;103088.88;5012818;28;8788;-83
2022/01/11 04:35:25;;;;;;;;;9.75;9.75;;;;;15.83;56.95;103079.13;5013826;28;9471;-82
2022/01/11 04:37:50;;;;;;;;;11.00;10.75;;;;;15.84;57.05;103086.22;5012788;28;8805;-82
2022/01/11 04:40:16;;;;;;;;;13.25;11.75;;;;;15.83;57.27;103078.25;5013674;28;8825;-82
2022/01/11 04:42:41;;;;;;;;;10.75;10.00;;;;;15.80;56.70;103084.31;5013533;28;8828;-83
2022/01/11 04:45:10;;;;;;;;;8.50;8.00;;;;;15.83;57.02;103089.69;5013124;28;8790;-83
2022/01/11 04:47:35;;;;;;;;;10.25;9.50;;;;;15.82;56.97;103085.25;5014265;28;8847;-83
2022/01/11 04:50:01;;;;;;;;;12.50;11.25;;;;;15.81;56.63;103086.09;5013669;28;9529;-83
2022/01/11 04:52:26;;;;;;;;;11.00;11.00;;;;;15.82;56.98;103084.38;5012923;28;8798;-83
2022/01/11 04:54:51;;;;;;;;;8.75;7.50;;;;;15.83;56.94;103080.88;5013063;28;8778;-84
2022/01/11 04:57:17;;;;;;;;;11.25;9.50;;;;;15.80;57.14;103083.41;5013293;28;8804;-83
2022/01/11 04:59:42;;;;;;;;;13.25;12.50;;;;;15.80;56.99;103084.31;5012767;28;8863;-84
2022/01/11 05:02:07;;;;;;;;;9.00;7.00;;;;;15.81;56.89;103091.38;5013151;28;8778;-83
2022/01/11 05:04:33;;;;;;;;;14.00;14.00;;;;;15.74;56.76;103083.19;5013307;28;8828;-83
2022/01/11 05:06:58;;;;;;;;;12.00;10.50;;;;;15.82;56.98;103097.53;5012168;28;8809;-83
2022/01/11 05:09:23;;;;;;;;;9.75;9.75;;;;;15.81;56.93;103096.66;5013140;28;8777;-83
2022/01/11 05:11:50;;;;;;;;;9.50;8.50;;;;;15.82;56.93;103097.53;5011580;28;8778;-83
2022/01/11 05:14:15;;;;;;;;;12.50;11.75;;;;;15.75;56.95;103088.50;5013242;28;8776;-83
2022/01/11 05:16:43;;;;;;;;;13.75;12.75;;;;;15.76;57.08;103085.03;5013031;28;9722;-84
2022/01/11 05:19:12;;;;;;;;;11.00;11.00;;;;;15.77;56.79;103085.94;5012268;28;8859;-84
2022/01/11 05:21:39;;;;;;;;;13.25;11.00;;;;;15.80;56.78;103094.84;5013049;28;9690;-84
2022/01/11 05:24:05;;;;;;;;;12.50;11.00;;;;;15.80;56.72;103100.13;5057083;22;9899;-82
2022/01/11 05:26:31;;;;;;;;;10.75;10.25;;;;;15.76;56.81;103092.94;5031896;28;9799;-83
2022/01/11 05:28:56;;;;;;;;;11.00;10.00;;;;;15.77;56.76;103088.56;5031621;28;9617;-82
2022/01/11 05:31:21;;;;;;;;;7.00;7.00;;;;;15.81;56.82;103094.00;5032522;28;8771;-83
2022/01/11 05:33:46;;;;;;;;;11.50;10.25;;;;;15.80;56.72;103094.84;5031121;28;8828;-82
2022/01/11 05:36:12;;;;;;;;;12.25;11.25;;;;;15.75;56.54;103092.88;5031896;28;8772;-83
2022/01/11 05:38:37;;;;;;;;;12.25;12.25;;;;;15.80;56.62;103097.47;5032117;28;8786;-83
2022/01/11 05:41:06;;;;;;;;;11.00;10.00;;;;;15.83;56.60;103091.41;5031081;28;8772;-83
2022/01/11 05:43:31;;;;;;;;;9.75;9.75;;;;;15.76;56.56;103084.13;5031762;28;8791;-83
2022/01/11 05:45:56;;;;;;;;;15.75;12.75;;;;;15.80;56.70;103096.56;5031497;28;9692;-83
2022/01/11 05:48:22;;;;;;;;;9.00;9.00;;;;;15.79;56.77;103092.13;5031278;28;9507;-83
2022/01/11 05:50:47;;;;;;;;;10.00;10.00;;;;;15.82;56.55;103102.81;5031717;28;8876;-84
2022/01/11 05:53:12;;;;;;;;;10.00;9.00;;;;;15.80;56.67;103101.84;5031901;28;8799;-83
2022/01/11 05:55:38;;;;;;;;;13.75;13.75;;;;;15.78;56.53;103096.50;5031454;28;9638;-83
2022/01/11 05:58:04;;;;;;;;;10.25;10.25;;;;;15.79;56.70;103097.41;5032050;28;8811;-83
2022/01/11 06:00:29;;;;;;;;;12.25;12.25;;;;;15.77;56.59;103092.09;5031975;28;8787;-84
2022/01/11 06:02:55;;;;;;;;;12.25;10.75;;;;;15.76;56.41;103098.22;5031878;28;8877;-83
2022/01/11 06:05:21;;;;;;;;;9.75;9.75;;;;;15.79;56.37;103100.94;5035973;28;9549;-83
2022/01/11 06:07:46;;;;;;;;;14.00;11.75;;;;;15.79;56.62;103105.31;5043563;28;8807;-82
2022/01/11 06:10:21;;;;;;;;;13.50;12.50;;;;;15.78;56.63;103096.50;5031933;28;10558;-82
2022/01/11 06:12:46;;;;;;;;;11.75;11.75;;;;;15.79;56.37;103100.03;5031814;28;8783;-82
2022/01/11 06:15:13;;;;;;;;;11.25;11.25;;;;;15.81;56.49;103101.91;5031492;28;9708;-83
2022/01/11 06:17:38;;;;;;;;;10.25;10.00;;;;;15.78;56.36;103100.91;5031922;28;8787;-82
2022/01/11 06:20:05;;;;;;;;;10.50;10.50;;;;;15.81;56.33;103099.28;5031626;28;9728;-82
2022/01/11 06:22:30;;;;;;;;;10.00;10.00;;;;;15.82;56.46;103108.94;5031532;28;8784;-82
2022/01/11 06:24:56;;;;;;;;;10.75;8.50;;;;;15.81;56.28;103111.56;5031575;28;9462;-83
2022/01/11 06:27:21;;;;;;;;;10.75;9.50;;;;;15.79;56.57;103114.13;5031346;28;8937;-82
2022/01/11 06:29:46;;;;;;;;;7.00;6.50;;;;;15.79;56.20;103116.75;5031204;28;8866;-84
2022/01/11 06:32:12;;;;;;;;;10.50;10.25;;;;;15.81;56.19;103130.88;5031945;28;8791;-83
2022/01/11 06:34:38;;;;;;;;;11.25;11.25;;;;;15.82;56.55;103134.44;5031570;28;8841;-83
2022/01/11 06:37:03;;;;;;;;;10.00;10.00;;;;;15.77;56.54;103123.72;5030985;28;8787;-83
2022/01/11 06:39:29;;;;;;;;;11.75;10.75;;;;;15.79;56.37;103127.28;5031990;28;8780;-84
2022/01/11 06:41:54;;;;;;;;;10.25;10.25;;;;;15.79;56.58;103134.28;5030458;28;8847;-83
2022/01/11 06:44:20;;;;;;;;;12.00;10.75;;;;;15.81;56.48;103135.25;5031134;28;8755;-82
2022/01/11 06:46:45;;;;;;;;;12.25;12.25;;;;;15.79;56.64;103136.91;5031332;28;8893;-82
2022/01/11 06:49:10;;;;;;;;;12.00;11.75;;;;;15.78;56.53;103143.91;5033238;28;8807;-83
2022/01/11 06:51:36;;;;;;;;;9.50;9.50;;;;;15.81;56.49;103153.69;5034553;28;8783;-83
2022/01/11 06:54:01;;;;;;;;;12.00;11.00;;;;;15.82;56.61;103159.00;5034735;28;8775;-82
2022/01/11 06:56:27;;;;;;;;;6.75;6.75;;;;;15.76;56.55;103156.16;5034630;28;8909;-82
2022/01/11 06:58:52;;;;;;;;;10.00;10.00;;;;;15.81;56.55;103164.22;5034653;28;9507;-82
2022/01/11 07:01:18;;;;;;;;;10.75;9.25;;;;;15.79;56.35;103171.16;5035836;28;8834;-82
2022/01/11 07:03:44;;;;;;;;;11.00;9.75;;;;;15.78;56.58;103162.34;5037588;28;8787;-82
2022/01/11 07:06:09;;;;;;;;;10.75;10.75;;;;;15.80;56.67;103175.59;5046124;28;8782;-83
2022/01/11 07:08:34;;;;;;;;;11.25;11.25;;;;;15.73;56.43;103153.41;5037799;28;8859;-83
2022/01/11 07:10:59;;;;;;;;;11.00;10.75;;;;;15.77;56.58;103165.84;5035115;28;8798;-83
2022/01/11 07:13:25;;;;;;;;;9.00;9.00;;;;;15.81;56.43;103170.41;5034374;28;8858;-84
2022/01/11 07:15:50;;;;;;;;;11.50;11.00;;;;;15.83;56.47;103162.53;5034879;28;9556;-84
2022/01/11 07:18:16;;;;;;;;;8.00;8.00;;;;;15.83;56.23;103171.34;5034376;28;8803;-83
2022/01/11 07:20:44;;;;;;;;;12.75;11.25;;;;;15.89;56.23;103174.22;5034979;28;8779;-84
2022/01/11 07:23:11;;;;;;;;;12.25;12.25;;;;;15.97;56.92;103165.69;5035669;28;8814;-89
2022/01/11 07:25:38;;;;;;;;;20.25;13.25;;;;;16.16;62.07;103181.34;5042152;28;9650;-93
2022/01/11 07:30:39;;;;;;;;;14.25;14.25;;;;;16.44;66.16;103186.72;5129203;22;9782;-93
2022/01/11 07:33:07;;;;;;;;;15.75;14.50;;;;;16.51;66.32;103187.81;5058909;28;9794;-93
2022/01/11 07:35:35;;;;;;;;;20.00;16.50;;;;;16.61;68.91;103190.00;5059714;28;8780;-90
2022/01/11 07:38:00;;;;;;;;;21.25;21.00;;;;;16.76;72.36;103183.47;5056853;28;10063;-89
2022/01/11 07:40:31;;;;;;;;;21.75;17.00;;;;;16.73;72.62;103174.56;5055631;28;9800;-86
2022/01/11 07:42:59;;;;;;;;;16.50;15.50;;;;;16.66;71.05;103165.56;5055126;28;8847;-86
2022/01/11 07:45:25;;;;;;;;;18.00;14.25;;;;;16.59;71.65;103157.38;5054485;28;9738;-86
2022/01/11 07:47:50;;;;;;;;;20.75;15.75;;;;;16.68;71.97;103190.25;5053514;28;9684;-85
2022/01/11 07:50:16;;;;;;;;;15.25;13.50;;;;;16.64;72.77;103184.81;5054005;28;9551;-82
2022/01/11 07:52:53;;;;;;;;;22.50;18.50;;;;;16.91;74.62;103205.09;5053999;28;8800;-88
2022/01/11 07:55:19;;;;;;;;;16.75;15.75;;;;;16.75;72.88;103186.97;5053959;28;8788;-88
2022/01/11 07:57:57;;;;;;;;;18.75;16.75;;;;;16.94;73.04;103208.69;5035025;28;9694;-86
2022/01/11 08:00:23;;;;;;;;;18.25;18.00;;;;;16.87;73.02;103189.13;5033819;28;9509;-87
2022/01/11 08:02:48;;;;;;;;;17.00;17.00;;;;;16.76;72.63;103178.19;5036646;28;9888;-83
2022/01/11 08:05:26;;;;;;;;;22.75;18.25;;;;;16.56;72.39;103170.44;5041394;28;8918;-87
2022/01/11 08:07:51;;;;;;;;;20.50;18.00;;;;;16.71;72.57;103203.53;5151125;22;8879;-85
2022/01/11 08:10:18;;;;;;;;;24.50;23.25;;;;;16.65;72.02;103197.13;5025285;28;9816;-87
2022/01/11 08:12:44;;;;;;;;;21.00;18.00;;;;;16.62;71.26;103199.66;5013543;28;8852;-86
2022/01/11 08:15:10;;;;;;;;;18.50;16.00;;;;;16.59;70.93;103202.22;5027212;28;9848;-87
2022/01/11 08:17:35;;;;;;;;;17.75;15.75;;;;;16.56;70.25;103204.72;5015422;28;10472;-85
2022/01/11 08:20:01;;;;;;;;;21.00;16.25;;;;;16.54;69.56;103207.28;5033158;28;8812;-87
2022/01/11 08:22:26;;;;;;;;;20.00;16.00;;;;;16.50;68.97;103213.28;5018742;28;8806;-84
2022/01/11 08:24:52;;;;;;;;;19.00;16.00;;;;;16.48;67.77;103214.09;5022961;28;8810;-84
2022/01/11 08:27:19;;;;;;;;;13.25;13.25;;;;;16.48;67.37;103227.28;5025244;28;8926;-84
2022/01/11 08:29:45;;;;;;;;;14.75;13.75;;;;;16.46;66.32;103227.22;5032178;28;8784;-84
2022/01/11 08:32:11;;;;;;;;;15.50;13.00;;;;;16.47;64.90;103230.75;5031015;28;9828;-84
2022/01/11 08:34:36;;;;;;;;;16.75;16.75;;;;;16.48;64.36;103225.53;5032570;28;8800;-85
2022/01/11 08:37:02;;;;;;;;;22.25;18.00;;;;;16.37;62.74;103213.72;5031654;28;8815;-86
2022/01/11 08:39:27;;;;;;;;;17.25;17.25;;;;;16.39;61.40;103225.19;5022952;28;8810;-85
2022/01/11 08:41:52;;;;;;;;;15.00;15.00;;;;;16.41;62.77;103226.16;5021576;28;8822;-87
2022/01/11 08:44:22;;;;;;;;;21.00;20.50;;;;;16.37;61.37;103217.25;5011779;28;8786;-86
2022/01/11 08:46:48;;;;;;;;;18.00;14.75;;;;;16.40;61.62;103225.28;5030007;28;8835;-85
2022/01/11 08:49:13;;;;;;;;;17.00;14.75;;;;;16.38;60.94;103223.44;5032123;28;9795;-84
2022/01/11 08:51:39;;;;;;;;;17.75;15.75;;;;;16.40;60.55;103219.09;5031910;28;8885;-88
2022/01/11 08:54:04;;;;;;;;;14.25;13.50;;;;;16.46;60.28;103219.31;5028526;28;8898;-87
2022/01/11 08:56:31;;;;;;;;;16.25;15.00;;;;;16.47;58.66;103221.09;5027269;28;9721;-85
2022/01/11 08:58:56;;;;;;;;;13.75;13.25;;;;;16.47;58.42;103223.75;5012298;28;8838;-87
2022/01/11 09:01:21;;;;;;;;;15.25;14.75;;;;;16.47;58.19;103215.84;5012234;28;9732;-86
2022/01/11 09:03:46;;;;;;;;;14.50;13.00;;;;;16.50;57.79;103215.03;5011703;28;8896;-87
2022/01/11 09:06:12;;;;;;;;;17.75;15.25;;;;;16.52;57.64;103222.16;5015478;28;8806;-86
2022/01/11 09:08:38;;;;;;;;;16.50;15.75;;;;;16.54;56.53;103228.38;5029335;28;8861;-87
2022/01/11 09:11:05;;;;;;;;;12.50;12.25;;;;;16.57;55.61;103232.94;5028430;28;8788;-85
2022/01/11 09:13:31;;;;;;;;;13.00;12.00;;;;;16.59;54.84;103233.84;5017433;28;9728;-88
2022/01/11 09:15:57;;;;;;;;;17.75;16.75;;;;;16.60;53.78;103223.38;5020437;28;9571;-85
2022/01/11 09:18:22;;;;;;;;;13.50;13.50;;;;;16.71;53.57;103236.94;5016576;28;9622;-83
2022/01/11 09:20:48;;;;;;;;;14.25;14.25;;;;;16.67;54.75;103233.28;5031329;28;8788;-84
2022/01/11 09:23:13;;;;;;;;;16.00;16.00;;;;;16.70;54.09;103222.84;5022768;28;8806;-84
2022/01/11 09:25:38;;;;;;;;;13.00;13.00;;;;;16.70;54.67;103222.84;5030083;28;10401;-84
2022/01/11 09:28:04;;;;;;;;;14.50;14.00;;;;;16.73;54.62;103237.88;5031204;28;8846;-84
2022/01/11 09:30:29;;;;;;;;;13.00;13.00;;;;;16.70;54.58;103238.66;5030543;28;8804;-82
2022/01/11 09:32:56;;;;;;;;;12.00;12.00;;;;;16.73;54.08;103233.50;5011061;28;10924;-84
2022/01/11 09:35:21;;;;;;;;;13.75;13.75;;;;;16.79;54.21;103244.28;4992251;28;8819;-84
2022/01/11 09:37:49;;;;;;;;;14.75;13.00;;;;;16.78;54.33;103231.03;5002517;28;9678;-84
2022/01/11 09:40:16;;;;;;;;;13.25;10.00;;;;;16.75;54.20;103239.75;5006941;28;8788;-83
2022/01/11 09:42:42;;;;;;;;;13.25;11.25;;;;;16.78;54.60;103241.56;4999115;28;9768;-83
2022/01/11 09:45:09;;;;;;;;;11.00;11.00;;;;;16.75;54.71;103241.47;5007700;28;9702;-82
2022/01/11 09:47:37;;;;;;;;;13.75;12.50;;;;;16.75;54.56;103242.38;5002390;28;11466;-84
2022/01/11 09:50:05;;;;;;;;;7.75;7.75;;;;;16.71;54.65;103235.19;5000350;28;9587;-84
2022/01/11 09:52:31;;;;;;;;;13.75;11.50;;;;;16.70;54.92;103246.59;5003849;28;9658;-82
2022/01/11 09:54:56;;;;;;;;;12.25;10.50;;;;;16.63;55.13;103244.56;4999550;28;9913;-82
2022/01/11 09:57:22;;;;;;;;;11.75;11.25;;;;;16.64;55.07;103237.56;5004566;28;10916;-83
2022/01/11 09:59:47;;;;;;;;;10.00;10.00;;;;;16.63;55.36;103244.56;5006588;28;8800;-84
2022/01/11 10:02:13;;;;;;;;;11.75;10.50;;;;;16.58;55.51;103240.88;4990342;28;8817;-82
2022/01/11 10:04:39;;;;;;;;;7.75;7.75;;;;;16.54;55.55;103236.28;5001610;28;8859;-83
2022/01/11 10:07:09;;;;;;;;;9.00;7.50;;;;;16.54;55.65;103241.56;5009401;28;10754;-84
2022/01/11 10:09:43;;;;;;;;;11.50;11.50;;;;;16.53;55.58;103239.81;5003964;28;8847;-83
2022/01/11 10:12:12;;;;;;;;;14.00;12.50;;;;;16.49;55.83;103232.63;4995835;28;9592;-82
2022/01/11 10:14:43;;;;;;;;;11.00;11.00;;;;;16.61;55.13;103234.84;5008279;28;9779;-83
2022/01/11 10:17:12;;;;;;;;;8.50;7.75;;;;;16.57;55.49;103239.06;5001228;28;10632;-86
2022/01/11 10:19:39;;;;;;;;;11.00;10.50;;;;;16.49;55.69;103237.91;5003776;28;9674;-88
2022/01/11 10:22:08;;;;;;;;;12.25;11.25;;;;;16.52;55.86;103251.19;5006442;28;9763;-88
2022/01/11 10:24:42;;;;;;;;;10.75;10.25;;;;;16.56;55.57;103252.19;4994216;28;10765;-89
2022/01/11 10:27:24;;;;;;;;;8.00;6.50;;;;;16.53;55.61;103260.91;4994277;28;10655;-84
2022/01/11 10:29:54;;;;;;;;;8.00;8.00;;;;;16.52;55.52;103264.38;4994489;28;9666;-85
2022/01/11 10:32:37;;;;;;;;;7.25;7.00;;;;;16.46;56.08;103261.50;5001472;28;9412;-87
2022/01/11 10:35:40;;;;;;;;;6.00;6.00;;;;;16.45;56.26;103259.72;5013665;28;9604;-90
2022/01/11 10:38:06;;;;;;;;;9.25;8.00;;;;;16.64;55.26;103269.22;4989388;28;9506;-82
2022/01/11 10:53:38;;;;;;;;;10.50;8.25;;;;;16.76;55.32;103267.88;6138868;22;1206445;-83
2022/01/11 10:56:05;;;;;;;;;8.25;8.00;;;;;16.76;55.39;103267.00;6161153;23;11406;-82
2022/01/11 10:58:36;;;;;;;;;9.50;8.75;;;;;16.69;55.54;103262.34;6151364;23;10670;-82
2022/01/11 11:01:03;;;;;;;;;8.50;8.00;;;;;16.72;55.25;103259.84;6161176;23;9483;-83
2022/01/11 11:03:32;;;;;;;;;10.25;10.00;;;;;16.68;55.64;103269.38;6162759;23;9431;-82
2022/01/11 11:24:57;;;;;;;;;10.00;10.00;;;;;17.10;57.97;103274.31;4998873;27;13528;-72
2022/01/11 11:27:24;;;;;;;;;10.25;8.25;;;;;17.37;56.81;103276.13;5006324;28;11697;-73
2022/01/11 11:29:52;;;;;;;;;10.50;10.25;;;;;17.42;56.31;103286.84;5018151;28;8781;-73
2022/01/11 11:32:20;;;;;;;;;12.75;11.25;;;;;17.47;56.91;103287.88;5026090;28;9655;-72
2022/01/11 11:34:50;;;;;;;;;11.00;10.00;;;;;17.41;56.54;103292.97;5026288;28;9724;-73
2022/01/11 11:37:35;;;;;;;;;9.50;7.75;;;;;17.56;55.98;103292.56;5027511;28;9671;-73
2022/01/11 11:40:06;;;;;;;;;11.75;10.25;;;;;17.53;55.94;103290.72;5026389;28;9731;-73
2022/01/11 11:42:32;;;;;;;;;11.75;11.25;;;;;17.64;55.65;103293.75;5027656;28;9568;-73
2022/01/11 11:45:14;;;;;;;;;8.25;8.25;;;;;17.55;56.04;103288.13;5027594;28;9628;-73
2022/01/11 11:47:39;;;;;;;;;6.50;5.50;;;;;17.63;55.95;103289.31;5027112;28;9538;-72
2022/01/11 11:50:06;;;;;;;;;8.75;8.75;;;;;17.67;55.76;103283.28;5027902;28;9398;-72
2022/01/11 11:52:37;;;;;;;;;9.33;9.33;;;;;17.57;56.04;103283.84;5027243;28;8798;-72
2022/01/11 11:55:09;;;;;;;;;8.50;8.50;;;;;17.51;56.59;103276.56;5027664;28;9337;-72
2022/01/11 11:57:37;;;;;;;;;10.00;8.75;;;;;17.67;56.16;103277.97;5011059;28;9497;-71